sensor_id;sensor_type;location;lat;lon;timestamp;pressure;altitude;pressure_sealevel;temperature;humidity
54910;BME280;63189;51.240;9.964;2023-04-06T00:00:35;98174.22;;;0.95;64.52
54910;BME280;63189;51.240;9.964;2023-04-06T00:03:01;98168.19;;;0.93;64.49
54910;BME280;63189;51.240;9.964;2023-04-06T00:05:26;98161.28;;;0.85;64.47
54910;BME280;63189;51.240;9.964;2023-04-06T00:07:53;98155.25;;;0.82;64.68
54910;BME280;63189;51.240;9.964;2023-04-06T00:10:20;98174.16;;;0.89;64.42
54910;BME280;63189;51.240;9.964;2023-04-06T00:12:46;98132.00;;;0.68;64.49
54910;BME280;63189;51.240;9.964;2023-04-06T00:15:11;98122.47;;;0.58;64.34
54910;BME280;63189;51.240;9.964;2023-04-06T00:17:37;98139.69;;;0.65;64.87
54910;BME280;63189;51.240;9.964;2023-04-06T00:20:02;98150.91;;;0.76;64.91
54910;BME280;63189;51.240;9.964;2023-04-06T00:22:28;98151.69;;;0.69;65.38
54910;BME280;63189;51.240;9.964;2023-04-06T00:24:53;98146.50;;;0.65;65.17
54910;BME280;63189;51.240;9.964;2023-04-06T00:27:18;98146.44;;;0.58;65.18
54910;BME280;63189;51.240;9.964;2023-04-06T00:29:44;98149.09;;;0.66;65.15
54910;BME280;63189;51.240;9.964;2023-04-06T00:32:10;98155.13;;;0.73;64.81
54910;BME280;63189;51.240;9.964;2023-04-06T00:34:35;98152.53;;;0.68;65.35
54910;BME280;63189;51.240;9.964;2023-04-06T00:37:00;98154.28;;;0.72;65.69
54910;BME280;63189;51.240;9.964;2023-04-06T00:39:26;98148.28;;;0.70;66.01
54910;BME280;63189;51.240;9.964;2023-04-06T00:41:54;98140.47;;;0.61;65.89
54910;BME280;63189;51.240;9.964;2023-04-06T00:44:21;98152.50;;;0.64;65.74
54910;BME280;63189;51.240;9.964;2023-04-06T00:46:46;98154.22;;;0.66;65.75
54910;BME280;63189;51.240;9.964;2023-04-06T00:49:12;98136.97;;;0.53;65.23
54910;BME280;63189;51.240;9.964;2023-04-06T00:51:37;98144.72;;;0.61;65.40
54910;BME280;63189;51.240;9.964;2023-04-06T00:54:02;98120.72;;;0.52;65.84
54910;BME280;63189;51.240;9.964;2023-04-06T00:56:28;98138.75;;;0.62;65.83
54910;BME280;63189;51.240;9.964;2023-04-06T00:58:53;98131.91;;;0.59;65.93
54910;BME280;63189;51.240;9.964;2023-04-06T01:01:19;98126.75;;;0.59;66.05
54910;BME280;63189;51.240;9.964;2023-04-06T01:03:45;98126.72;;;0.54;66.44
54910;BME280;63189;51.240;9.964;2023-04-06T01:06:14;98131.91;;;0.59;66.54
54910;BME280;63189;51.240;9.964;2023-04-06T01:08:40;98124.94;;;0.49;66.87
54910;BME280;63189;51.240;9.964;2023-04-06T01:11:05;98136.06;;;0.51;66.96
54910;BME280;63189;51.240;9.964;2023-04-06T01:13:30;98128.31;;;0.43;66.96
54910;BME280;63189;51.240;9.964;2023-04-06T01:15:56;98124.81;;;0.40;66.75
54910;BME280;63189;51.240;9.964;2023-04-06T01:18:28;98123.06;;;0.36;67.26
54910;BME280;63189;51.240;9.964;2023-04-06T01:20:55;98124.69;;;0.31;68.00
54910;BME280;63189;51.240;9.964;2023-04-06T01:23:21;98105.75;;;0.19;68.29
54910;BME280;63189;51.240;9.964;2023-04-06T01:25:46;98115.16;;;0.20;68.65
54910;BME280;63189;51.240;9.964;2023-04-06T01:28:11;98109.03;;;0.09;68.79
54910;BME280;63189;51.240;9.964;2023-04-06T01:30:37;98054.78;;;-0.24;69.12
54910;BME280;63189;51.240;9.964;2023-04-06T01:33:02;98112.41;;;0.05;69.08
54910;BME280;63189;51.240;9.964;2023-04-06T01:35:28;98115.81;;;0.04;69.17
54910;BME280;63189;51.240;9.964;2023-04-06T01:37:53;98108.81;;;-0.09;69.14
54910;BME280;63189;51.240;9.964;2023-04-06T01:40:19;98123.47;;;0.01;69.19
54910;BME280;63189;51.240;9.964;2023-04-06T01:42:44;98112.25;;;-0.07;69.48
54910;BME280;63189;51.240;9.964;2023-04-06T01:45:10;98113.00;;;-0.14;69.85
54910;BME280;63189;51.240;9.964;2023-04-06T01:47:35;98098.34;;;-0.23;70.20
54910;BME280;63189;51.240;9.964;2023-04-06T01:50:01;98106.03;;;-0.21;70.58
54910;BME280;63189;51.240;9.964;2023-04-06T01:52:28;98101.69;;;-0.28;70.16
54910;BME280;63189;51.240;9.964;2023-04-06T01:54:54;98098.16;;;-0.35;70.58
54910;BME280;63189;51.240;9.964;2023-04-06T01:57:19;98107.53;;;-0.37;71.10
54910;BME280;63189;51.240;9.964;2023-04-06T01:59:45;98104.91;;;-0.42;71.58
54910;BME280;63189;51.240;9.964;2023-04-06T02:02:10;98088.50;;;-0.53;72.00
54910;BME280;63189;51.240;9.964;2023-04-06T02:04:37;98048.03;;;-0.77;71.73
54910;BME280;63189;51.240;9.964;2023-04-06T02:07:03;98082.56;;;-0.52;71.31
54910;BME280;63189;51.240;9.964;2023-04-06T02:09:28;98080.81;;;-0.53;71.52
54910;BME280;63189;51.240;9.964;2023-04-06T02:11:54;98087.63;;;-0.53;71.53
54910;BME280;63189;51.240;9.964;2023-04-06T02:14:20;98087.59;;;-0.58;71.97
54910;BME280;63189;51.240;9.964;2023-04-06T02:16:46;98073.75;;;-0.69;71.57
54910;BME280;63189;51.240;9.964;2023-04-06T02:19:11;98091.81;;;-0.62;72.18
54910;BME280;63189;51.240;9.964;2023-04-06T02:21:37;98086.56;;;-0.68;72.67
54910;BME280;63189;51.240;9.964;2023-04-06T02:24:02;98076.19;;;-0.77;72.73
54910;BME280;63189;51.240;9.964;2023-04-06T02:26:27;98056.34;;;-0.92;72.27
54910;BME280;63189;51.240;9.964;2023-04-06T02:28:52;98100.13;;;-0.73;72.74
54910;BME280;63189;51.240;9.964;2023-04-06T02:31:18;98089.84;;;-0.76;72.58
54910;BME280;63189;51.240;9.964;2023-04-06T02:33:43;98081.13;;;-0.89;72.83
54910;BME280;63189;51.240;9.964;2023-04-06T02:36:08;98096.63;;;-0.80;72.71
54910;BME280;63189;51.240;9.964;2023-04-06T02:38:34;98100.88;;;-0.80;72.97
54910;BME280;63189;51.240;9.964;2023-04-06T02:40:59;98106.91;;;-0.77;72.28
54910;BME280;63189;51.240;9.964;2023-04-06T02:43:25;98086.25;;;-0.88;72.16
54910;BME280;63189;51.240;9.964;2023-04-06T02:45:50;98099.25;;;-0.75;72.23
54910;BME280;63189;51.240;9.964;2023-04-06T02:48:15;98104.38;;;-0.75;72.10
54910;BME280;63189;51.240;9.964;2023-04-06T02:50:41;98049.22;;;-1.08;72.21
54910;BME280;63189;51.240;9.964;2023-04-06T02:53:06;98087.22;;;-0.82;72.25
54910;BME280;63189;51.240;9.964;2023-04-06T02:55:31;98083.78;;;-0.83;72.19
54910;BME280;63189;51.240;9.964;2023-04-06T02:57:57;98076.75;;;-0.95;72.60
54910;BME280;63189;51.240;9.964;2023-04-06T03:00:22;98093.94;;;-0.88;72.73
54910;BME280;63189;51.240;9.964;2023-04-06T03:02:47;98059.50;;;-1.05;72.09
54910;BME280;63189;51.240;9.964;2023-04-06T03:05:13;98061.25;;;-1.04;72.59
54910;BME280;63189;51.240;9.964;2023-04-06T03:07:38;98081.13;;;-0.88;73.00
54910;BME280;63189;51.240;9.964;2023-04-06T03:10:04;98080.16;;;-0.94;72.90
54910;BME280;63189;51.240;9.964;2023-04-06T03:12:29;98092.16;;;-0.93;73.06
54910;BME280;63189;51.240;9.964;2023-04-06T03:14:55;98058.53;;;-1.14;73.45
54910;BME280;63189;51.240;9.964;2023-04-06T03:17:20;98089.50;;;-0.96;73.47
54910;BME280;63189;51.240;9.964;2023-04-06T03:19:46;98073.06;;;-1.10;73.64
54910;BME280;63189;51.240;9.964;2023-04-06T03:22:11;98080.78;;;-1.07;74.13
54910;BME280;63189;51.240;9.964;2023-04-06T03:24:36;98095.38;;;-1.03;73.92
54910;BME280;63189;51.240;9.964;2023-04-06T03:27:02;98084.16;;;-1.11;74.03
54910;BME280;63189;51.240;9.964;2023-04-06T03:29:27;98074.66;;;-1.17;74.43
54910;BME280;63189;51.240;9.964;2023-04-06T03:31:52;98098.69;;;-1.09;74.69
54910;BME280;63189;51.240;9.964;2023-04-06T03:34:18;98082.31;;;-1.19;75.30
54910;BME280;63189;51.240;9.964;2023-04-06T03:36:43;98101.94;;;-1.18;76.01
54910;BME280;63189;51.240;9.964;2023-04-06T03:39:08;98082.25;;;-1.23;75.00
54910;BME280;63189;51.240;9.964;2023-04-06T03:41:34;98090.00;;;-1.17;74.86
54910;BME280;63189;51.240;9.964;2023-04-06T03:43:59;98084.88;;;-1.19;74.91
54910;BME280;63189;51.240;9.964;2023-04-06T03:46:25;98079.69;;;-1.23;75.65
54910;BME280;63189;51.240;9.964;2023-04-06T03:48:50;98098.63;;;-1.13;74.26
54910;BME280;63189;51.240;9.964;2023-04-06T03:51:15;98108.88;;;-1.12;75.26
54910;BME280;63189;51.240;9.964;2023-04-06T03:53:41;98103.81;;;-1.09;74.59
54910;BME280;63189;51.240;9.964;2023-04-06T03:56:06;98102.97;;;-1.08;74.50
54910;BME280;63189;51.240;9.964;2023-04-06T03:58:32;98108.97;;;-1.06;74.85
54910;BME280;63189;51.240;9.964;2023-04-06T04:00:57;98102.03;;;-1.13;74.79
54910;BME280;63189;51.240;9.964;2023-04-06T04:03:22;98113.16;;;-1.11;74.96
54910;BME280;63189;51.240;9.964;2023-04-06T04:05:53;98101.13;;;-1.15;74.56
54910;BME280;63189;51.240;9.964;2023-04-06T04:08:18;98113.19;;;-1.09;74.64
54910;BME280;63189;51.240;9.964;2023-04-06T04:10:43;98102.72;;;-1.22;75.41
54910;BME280;63189;51.240;9.964;2023-04-06T04:13:08;98119.88;;;-1.16;74.69
54910;BME280;63189;51.240;9.964;2023-04-06T04:15:34;98118.09;;;-1.20;75.38
54910;BME280;63189;51.240;9.964;2023-04-06T04:17:59;98112.91;;;-1.25;74.84
54910;BME280;63189;51.240;9.964;2023-04-06T04:20:25;98108.56;;;-1.29;75.90
54910;BME280;63189;51.240;9.964;2023-04-06T04:22:50;98127.38;;;-1.25;75.68
54910;BME280;63189;51.240;9.964;2023-04-06T04:25:16;98132.44;;;-1.28;75.41
54910;BME280;63189;51.240;9.964;2023-04-06T04:27:41;98134.16;;;-1.27;75.56
54910;BME280;63189;51.240;9.964;2023-04-06T04:30:07;98137.56;;;-1.28;75.12
54910;BME280;63189;51.240;9.964;2023-04-06T04:32:32;98132.25;;;-1.37;75.16
54910;BME280;63189;51.240;9.964;2023-04-06T04:34:58;98116.88;;;-1.39;75.25
54910;BME280;63189;51.240;9.964;2023-04-06T04:37:23;98115.13;;;-1.41;75.20
54910;BME280;63189;51.240;9.964;2023-04-06T04:39:48;98128.81;;;-1.39;75.45
54910;BME280;63189;51.240;9.964;2023-04-06T04:42:13;98128.81;;;-1.39;75.82
54910;BME280;63189;51.240;9.964;2023-04-06T04:44:39;98137.44;;;-1.34;75.71
54910;BME280;63189;51.240;9.964;2023-04-06T04:47:04;98114.22;;;-1.45;75.87
54910;BME280;63189;51.240;9.964;2023-04-06T04:49:30;98115.00;;;-1.48;76.28
54910;BME280;63189;51.240;9.964;2023-04-06T04:51:55;98134.72;;;-1.42;76.06
54910;BME280;63189;51.240;9.964;2023-04-06T04:54:21;98146.75;;;-1.38;76.51
54910;BME280;63189;51.240;9.964;2023-04-06T04:56:46;98145.00;;;-1.39;76.47
54910;BME280;63189;51.240;9.964;2023-04-06T04:59:11;98137.25;;;-1.43;76.58
54910;BME280;63189;51.240;9.964;2023-04-06T05:01:37;98149.22;;;-1.42;76.64
54910;BME280;63189;51.240;9.964;2023-04-06T05:04:02;98095.91;;;-1.66;77.19
54910;BME280;63189;51.240;9.964;2023-04-06T05:06:27;98142.38;;;-1.43;77.41
54910;BME280;63189;51.240;9.964;2023-04-06T05:08:52;98146.63;;;-1.44;77.60
54910;BME280;63189;51.240;9.964;2023-04-06T05:11:18;98130.22;;;-1.55;77.58
54910;BME280;63189;51.240;9.964;2023-04-06T05:13:43;98129.34;;;-1.56;77.49
54910;BME280;63189;51.240;9.964;2023-04-06T05:16:09;98145.63;;;-1.52;78.08
54910;BME280;63189;51.240;9.964;2023-04-06T05:18:34;98123.28;;;-1.61;77.78
54910;BME280;63189;51.240;9.964;2023-04-06T05:20:59;98143.13;;;-1.48;78.25
54910;BME280;63189;51.240;9.964;2023-04-06T05:23:25;98135.34;;;-1.55;78.18
54910;BME280;63189;51.240;9.964;2023-04-06T05:25:51;98143.13;;;-1.48;78.18
54910;BME280;63189;51.240;9.964;2023-04-06T05:28:16;98121.75;;;-1.51;77.44
54910;BME280;63189;51.240;9.964;2023-04-06T05:30:43;98133.09;;;-1.38;78.01
54910;BME280;63189;51.240;9.964;2023-04-06T05:33:09;98130.63;;;-1.35;77.49
54910;BME280;63189;51.240;9.964;2023-04-06T05:35:35;98136.72;;;-1.26;77.48
54910;BME280;63189;51.240;9.964;2023-04-06T05:38:01;98101.38;;;-1.47;76.70
54910;BME280;63189;51.240;9.964;2023-04-06T05:40:26;98133.31;;;-1.26;76.86
54910;BME280;63189;51.240;9.964;2023-04-06T05:42:51;98097.13;;;-1.46;76.21
54910;BME280;63189;51.240;9.964;2023-04-06T05:45:18;98136.13;;;-1.14;76.06
54910;BME280;63189;51.240;9.964;2023-04-06T05:47:44;98137.91;;;-1.10;75.54
54910;BME280;63189;51.240;9.964;2023-04-06T05:50:14;98100.00;;;-1.31;75.42
54910;BME280;63189;51.240;9.964;2023-04-06T05:52:40;98108.75;;;-1.18;75.84
54910;BME280;63189;51.240;9.964;2023-04-06T05:55:08;98121.63;;;-1.13;76.20
54910;BME280;63189;51.240;9.964;2023-04-06T05:57:34;98137.25;;;-0.98;75.59
54910;BME280;63189;51.240;9.964;2023-04-06T05:59:59;98119.19;;;-1.06;75.40
54910;BME280;63189;51.240;9.964;2023-04-06T06:02:25;98101.22;;;-1.10;75.82
54910;BME280;63189;51.240;9.964;2023-04-06T06:04:52;98128.09;;;-0.85;76.32
54910;BME280;63189;51.240;9.964;2023-04-06T06:07:17;98132.53;;;-0.75;75.76
54910;BME280;63189;51.240;9.964;2023-04-06T06:09:43;98094.75;;;-0.90;75.59
54910;BME280;63189;51.240;9.964;2023-04-06T06:12:08;98129.31;;;-0.64;76.00
54910;BME280;63189;51.240;9.964;2023-04-06T06:14:34;98138.03;;;-0.52;76.19
54910;BME280;63189;51.240;9.964;2023-04-06T06:16:59;98130.47;;;-0.45;74.84
54910;BME280;63189;51.240;9.964;2023-04-06T06:19:24;98090.13;;;-0.60;73.92
54910;BME280;63189;51.240;9.964;2023-04-06T06:21:51;98115.22;;;-0.39;73.58
54910;BME280;63189;51.240;9.964;2023-04-06T06:24:16;98072.25;;;-0.55;73.50
54910;BME280;63189;51.240;9.964;2023-04-06T06:26:42;98124.81;;;-0.24;73.53
54910;BME280;63189;51.240;9.964;2023-04-06T06:29:08;98119.91;;;-0.10;72.51
54910;BME280;63189;51.240;9.964;2023-04-06T06:31:33;98138.03;;;0.05;72.78
54910;BME280;63189;51.240;9.964;2023-04-06T06:33:58;98122.69;;;0.08;72.06
54910;BME280;63189;51.240;9.964;2023-04-06T06:36:25;98129.63;;;0.15;71.49
54910;BME280;63189;51.240;9.964;2023-04-06T06:38:50;98124.53;;;0.18;69.96
54910;BME280;63189;51.240;9.964;2023-04-06T06:41:16;98138.44;;;0.36;70.98
54910;BME280;63189;51.240;9.964;2023-04-06T06:43:42;98130.81;;;0.40;70.42
54910;BME280;63189;51.240;9.964;2023-04-06T06:46:07;98132.59;;;0.47;69.46
54910;BME280;63189;51.240;9.964;2023-04-06T06:48:32;98140.47;;;0.61;69.50
54910;BME280;63189;51.240;9.964;2023-04-06T06:50:58;98122.56;;;0.64;69.65
54910;BME280;63189;51.240;9.964;2023-04-06T06:53:23;98126.16;;;0.83;69.25
54910;BME280;63189;51.240;9.964;2023-04-06T06:55:49;98112.53;;;0.87;69.55
54910;BME280;63189;51.240;9.964;2023-04-06T06:58:15;98144.50;;;1.18;68.44
54910;BME280;63189;51.240;9.964;2023-04-06T07:00:40;98103.41;;;1.15;69.98
54910;BME280;63189;51.240;9.964;2023-04-06T07:03:06;98134.53;;;1.55;67.37
54910;BME280;63189;51.240;9.964;2023-04-06T07:05:31;98137.25;;;1.74;68.01
54910;BME280;63189;51.240;9.964;2023-04-06T07:07:57;98121.06;;;1.86;65.45
54910;BME280;63189;51.240;9.964;2023-04-06T07:10:22;98123.81;;;2.17;66.45
54910;BME280;63189;51.240;9.964;2023-04-06T07:12:48;98109.38;;;2.40;66.35
54910;BME280;63189;51.240;9.964;2023-04-06T07:15:13;98087.97;;;2.56;62.96
54910;BME280;63189;51.240;9.964;2023-04-06T07:17:39;98099.22;;;2.86;62.34
54910;BME280;63189;51.240;9.964;2023-04-06T07:20:06;98120.78;;;3.34;62.39
54910;BME280;63189;51.240;9.964;2023-04-06T07:22:32;98092.41;;;3.49;62.42
54910;BME280;63189;51.240;9.964;2023-04-06T07:24:57;98095.84;;;3.79;60.24
54910;BME280;63189;51.240;9.964;2023-04-06T07:27:22;98135.31;;;4.20;58.70
54910;BME280;63189;51.240;9.964;2023-04-06T07:29:48;98076.00;;;4.05;57.77
54910;BME280;63189;51.240;9.964;2023-04-06T07:32:13;98123.19;;;4.50;58.62
54910;BME280;63189;51.240;9.964;2023-04-06T07:34:39;98101.69;;;4.45;56.89
54910;BME280;63189;51.240;9.964;2023-04-06T07:37:04;98131.69;;;4.72;56.73
54910;BME280;63189;51.240;9.964;2023-04-06T07:39:30;98083.53;;;4.61;55.69
54910;BME280;63189;51.240;9.964;2023-04-06T07:41:55;98115.31;;;4.80;56.86
54910;BME280;63189;51.240;9.964;2023-04-06T07:44:20;98116.84;;;5.09;56.42
54910;BME280;63189;51.240;9.964;2023-04-06T07:46:46;98125.34;;;5.32;56.47
54910;BME280;63189;51.240;9.964;2023-04-06T07:49:11;98098.63;;;5.32;55.23
54910;BME280;63189;51.240;9.964;2023-04-06T07:51:38;98116.53;;;5.51;55.41
54910;BME280;63189;51.240;9.964;2023-04-06T07:54:03;98092.44;;;5.48;54.59
54910;BME280;63189;51.240;9.964;2023-04-06T07:56:29;98092.22;;;5.72;54.60
54910;BME280;63189;51.240;9.964;2023-04-06T07:58:54;98093.97;;;5.72;52.64
54910;BME280;63189;51.240;9.964;2023-04-06T08:01:21;98109.19;;;6.08;54.47
54910;BME280;63189;51.240;9.964;2023-04-06T08:03:48;98099.63;;;6.17;54.62
54910;BME280;63189;51.240;9.964;2023-04-06T08:06:14;98092.66;;;6.20;52.90
54910;BME280;63189;51.240;9.964;2023-04-06T08:08:40;98101.09;;;6.39;51.57
54910;BME280;63189;51.240;9.964;2023-04-06T08:11:06;98107.78;;;6.55;53.56
54910;BME280;63189;51.240;9.964;2023-04-06T08:13:33;98103.31;;;6.66;52.19
54910;BME280;63189;51.240;9.964;2023-04-06T08:15:59;98108.50;;;6.70;51.15
54910;BME280;63189;51.240;9.964;2023-04-06T08:18:25;98102.28;;;6.83;51.83
54910;BME280;63189;51.240;9.964;2023-04-06T08:20:50;98109.81;;;7.01;52.30
54910;BME280;63189;51.240;9.964;2023-04-06T08:23:16;98076.38;;;6.81;52.76
54910;BME280;63189;51.240;9.964;2023-04-06T08:25:42;98107.09;;;7.07;50.86
54910;BME280;63189;51.240;9.964;2023-04-06T08:28:07;98072.53;;;7.08;51.99
54910;BME280;63189;51.240;9.964;2023-04-06T08:30:34;98103.88;;;7.51;52.44
54910;BME280;63189;51.240;9.964;2023-04-06T08:33:00;98101.09;;;7.62;51.19
54910;BME280;63189;51.240;9.964;2023-04-06T08:35:26;98089.72;;;7.69;51.79
54910;BME280;63189;51.240;9.964;2023-04-06T08:37:52;98074.88;;;7.77;51.21
54910;BME280;63189;51.240;9.964;2023-04-06T08:40:17;98096.16;;;7.98;52.43
54910;BME280;63189;51.240;9.964;2023-04-06T08:42:52;98109.53;;;8.23;50.13
54910;BME280;63189;51.240;9.964;2023-04-06T08:45:17;98105.88;;;8.33;49.92
54910;BME280;63189;51.240;9.964;2023-04-06T08:47:49;98057.53;;;8.27;51.83
54910;BME280;63189;51.240;9.964;2023-04-06T08:50:16;98070.97;;;8.49;51.22
54910;BME280;63189;51.240;9.964;2023-04-06T08:52:43;98084.47;;;8.66;50.68
54910;BME280;63189;51.240;9.964;2023-04-06T08:55:08;98100.53;;;8.85;48.98
54910;BME280;63189;51.240;9.964;2023-04-06T08:57:35;98075.06;;;9.01;49.01
54910;BME280;63189;51.240;9.964;2023-04-06T09:00:01;98085.97;;;9.17;48.83
54910;BME280;63189;51.240;9.964;2023-04-06T09:02:27;98089.13;;;9.31;48.43
54910;BME280;63189;51.240;9.964;2023-04-06T09:04:54;98061.44;;;9.27;47.39
54910;BME280;63189;51.240;9.964;2023-04-06T09:07:20;98082.34;;;9.24;44.91
54910;BME280;63189;51.240;9.964;2023-04-06T09:09:46;98097.66;;;9.36;47.40
54910;BME280;63189;51.240;9.964;2023-04-06T09:12:26;98089.72;;;9.42;45.30
54910;BME280;63189;51.240;9.964;2023-04-06T09:14:52;98083.50;;;9.48;47.55
54910;BME280;63189;51.240;9.964;2023-04-06T09:17:25;98093.41;;;9.69;46.03
54910;BME280;63189;51.240;9.964;2023-04-06T09:19:51;98079.22;;;9.81;46.12
54910;BME280;63189;51.240;9.964;2023-04-06T09:22:18;98089.31;;;9.93;45.00
54910;BME280;63189;51.240;9.964;2023-04-06T09:24:49;98080.38;;;10.03;47.84
54910;BME280;63189;51.240;9.964;2023-04-06T09:27:15;98085.25;;;10.16;46.19
54910;BME280;63189;51.240;9.964;2023-04-06T09:29:41;98052.56;;;10.04;44.59
54910;BME280;63189;51.240;9.964;2023-04-06T09:32:08;98079.28;;;10.45;47.05
54910;BME280;63189;51.240;9.964;2023-04-06T09:34:37;98064.31;;;10.51;47.12
54910;BME280;63189;51.240;9.964;2023-04-06T09:37:16;98089.38;;;10.86;45.41
54910;BME280;63189;51.240;9.964;2023-04-06T09:39:42;98078.75;;;10.92;43.44
54910;BME280;63189;51.240;9.964;2023-04-06T09:42:07;98033.81;;;10.84;43.66
54910;BME280;63189;51.240;9.964;2023-04-06T09:44:33;98046.00;;;10.84;43.40
54910;BME280;63189;51.240;9.964;2023-04-06T09:46:58;98058.28;;;11.08;46.66
54910;BME280;63189;51.240;9.964;2023-04-06T09:49:27;98062.63;;;11.36;44.46
54910;BME280;63189;51.240;9.964;2023-04-06T09:52:01;98070.47;;;11.36;40.63
54910;BME280;63189;51.240;9.964;2023-04-06T09:54:31;98058.81;;;11.46;42.03
54910;BME280;63189;51.240;9.964;2023-04-06T09:57:17;98062.09;;;11.79;45.31
54910;BME280;63189;51.240;9.964;2023-04-06T10:00:07;98065.25;;;11.90;40.39
54910;BME280;63189;51.240;9.964;2023-04-06T10:02:50;98065.66;;;11.76;41.83
54910;BME280;63189;51.240;9.964;2023-04-06T10:05:24;98044.91;;;11.72;42.82
54910;BME280;63189;51.240;9.964;2023-04-06T10:07:56;98055.72;;;11.61;42.46
54910;BME280;63189;51.240;9.964;2023-04-06T10:10:22;98050.50;;;11.61;42.71
54910;BME280;63189;51.240;9.964;2023-04-06T10:12:49;98054.94;;;11.59;40.93
54910;BME280;63189;51.240;9.964;2023-04-06T10:15:15;98045.34;;;11.60;40.94
54910;BME280;63189;51.240;9.964;2023-04-06T10:17:41;97988.16;;;11.25;40.81
54910;BME280;63189;51.240;9.964;2023-04-06T10:20:11;98049.59;;;11.62;39.44
54910;BME280;63189;51.240;9.964;2023-04-06T10:22:51;98038.56;;;11.80;40.79
54910;BME280;63189;51.240;9.964;2023-04-06T10:25:32;98041.50;;;11.96;41.26
54910;BME280;63189;51.240;9.964;2023-04-06T10:28:18;98034.56;;;11.95;36.92
54910;BME280;63189;51.240;9.964;2023-04-06T10:30:46;97999.50;;;12.02;42.33
54910;BME280;63189;51.240;9.964;2023-04-06T10:33:13;98020.59;;;12.21;39.51
54910;BME280;63189;51.240;9.964;2023-04-06T10:35:39;98031.78;;;12.25;36.07
54910;BME280;63189;51.240;9.964;2023-04-06T10:38:04;98039.94;;;12.40;40.18
54910;BME280;63189;51.240;9.964;2023-04-06T10:40:30;98006.03;;;12.37;40.44
54910;BME280;63189;51.240;9.964;2023-04-06T10:43:12;98022.09;;;12.52;37.97
54910;BME280;63189;51.240;9.964;2023-04-06T10:45:38;98032.19;;;12.61;40.28
54910;BME280;63189;51.240;9.964;2023-04-06T10:48:15;98037.53;;;12.58;37.39
54910;BME280;63189;51.240;9.964;2023-04-06T10:50:42;98022.50;;;12.41;37.92
54910;BME280;63189;51.240;9.964;2023-04-06T10:53:08;97980.94;;;12.33;38.93
54910;BME280;63189;51.240;9.964;2023-04-06T10:55:34;98011.25;;;12.61;38.86
54910;BME280;63189;51.240;9.964;2023-04-06T10:57:59;97999.00;;;12.39;38.19
54910;BME280;63189;51.240;9.964;2023-04-06T11:00:25;98012.63;;;12.24;38.66
54910;BME280;63189;51.240;9.964;2023-04-06T11:02:51;98006.22;;;12.33;38.58
54910;BME280;63189;51.240;9.964;2023-04-06T11:05:17;97987.16;;;12.29;39.78
54910;BME280;63189;51.240;9.964;2023-04-06T11:07:44;97980.81;;;12.13;38.83
54910;BME280;63189;51.240;9.964;2023-04-06T11:10:09;97976.47;;;11.89;36.45
54910;BME280;63189;51.240;9.964;2023-04-06T11:12:35;98006.16;;;12.11;37.49
54910;BME280;63189;51.240;9.964;2023-04-06T11:15:03;98010.59;;;12.32;36.58
54910;BME280;63189;51.240;9.964;2023-04-06T11:17:33;97994.91;;;12.32;38.96
54910;BME280;63189;51.240;9.964;2023-04-06T11:19:59;98005.31;;;12.57;39.35
54910;BME280;63189;51.240;9.964;2023-04-06T11:22:26;97989.00;;;12.51;40.75
54910;BME280;63189;51.240;9.964;2023-04-06T11:24:52;98003.69;;;12.77;38.90
54910;BME280;63189;51.240;9.964;2023-04-06T11:27:18;97990.41;;;12.81;39.90
54910;BME280;63189;51.240;9.964;2023-04-06T11:29:44;97963.47;;;12.79;40.91
54910;BME280;63189;51.240;9.964;2023-04-06T11:32:20;97977.34;;;12.81;39.08
54910;BME280;63189;51.240;9.964;2023-04-06T11:34:47;97986.00;;;12.83;37.14
54910;BME280;63189;51.240;9.964;2023-04-06T11:37:13;97985.22;;;12.58;37.29
54910;BME280;63189;51.240;9.964;2023-04-06T11:39:40;97992.91;;;12.39;36.71
54910;BME280;63189;51.240;9.964;2023-04-06T11:42:06;97983.81;;;12.26;38.37
54910;BME280;63189;51.240;9.964;2023-04-06T11:44:34;97980.88;;;12.11;38.64
54910;BME280;63189;51.240;9.964;2023-04-06T11:47:03;97973.59;;;12.20;37.55
54910;BME280;63189;51.240;9.964;2023-04-06T11:49:30;97988.72;;;12.35;39.43
54910;BME280;63189;51.240;9.964;2023-04-06T11:52:00;97997.00;;;11.99;36.33
54910;BME280;63189;51.240;9.964;2023-04-06T11:54:35;97986.06;;;11.88;38.19
54910;BME280;63189;51.240;9.964;2023-04-06T11:57:03;97966.91;;;11.88;38.28
54910;BME280;63189;51.240;9.964;2023-04-06T11:59:28;97979.69;;;11.95;37.51
54910;BME280;63189;51.240;9.964;2023-04-06T12:01:54;97953.03;;;11.85;39.00
54910;BME280;63189;51.240;9.964;2023-04-06T12:04:20;97961.59;;;11.91;38.58
54910;BME280;63189;51.240;9.964;2023-04-06T12:06:45;97966.81;;;11.91;36.95
54910;BME280;63189;51.240;9.964;2023-04-06T12:09:10;97974.84;;;11.84;38.40
54910;BME280;63189;51.240;9.964;2023-04-06T12:11:36;97959.28;;;11.81;36.30
54910;BME280;63189;51.240;9.964;2023-04-06T12:14:01;97963.03;;;11.99;39.30
54910;BME280;63189;51.240;9.964;2023-04-06T12:16:30;97959.97;;;12.11;37.96
54910;BME280;63189;51.240;9.964;2023-04-06T12:18:55;97940.34;;;12.00;38.00
54910;BME280;63189;51.240;9.964;2023-04-06T12:21:21;97940.56;;;11.94;37.06
54910;BME280;63189;51.240;9.964;2023-04-06T12:23:47;97942.44;;;11.90;37.77
54910;BME280;63189;51.240;9.964;2023-04-06T12:26:13;97956.94;;;11.99;38.28
54910;BME280;63189;51.240;9.964;2023-04-06T12:28:38;97948.97;;;12.02;37.56
54910;BME280;63189;51.240;9.964;2023-04-06T12:31:03;97933.75;;;12.13;40.73
54910;BME280;63189;51.240;9.964;2023-04-06T12:33:50;97933.19;;;12.28;37.29
54910;BME280;63189;51.240;9.964;2023-04-06T12:36:17;97934.44;;;12.41;40.47
54910;BME280;63189;51.240;9.964;2023-04-06T12:38:51;97912.69;;;12.39;41.06
54910;BME280;63189;51.240;9.964;2023-04-06T12:41:17;97875.13;;;12.20;39.86
54910;BME280;63189;51.240;9.964;2023-04-06T12:43:44;97883.31;;;12.11;35.54
54910;BME280;63189;51.240;9.964;2023-04-06T12:46:12;97917.34;;;12.33;38.61
54910;BME280;63189;51.240;9.964;2023-04-06T12:48:37;97935.56;;;12.34;37.41
54910;BME280;63189;51.240;9.964;2023-04-06T12:51:06;97941.03;;;12.05;35.97
54910;BME280;63189;51.240;9.964;2023-04-06T12:53:33;97918.47;;;11.77;36.97
54910;BME280;63189;51.240;9.964;2023-04-06T12:55:59;97905.91;;;11.64;36.58
54910;BME280;63189;51.240;9.964;2023-04-06T12:58:25;97880.34;;;11.48;37.60
54910;BME280;63189;51.240;9.964;2023-04-06T13:00:55;97912.63;;;11.71;35.82